createdAt,value
2017-12-05T00:00:20.816Z,7.28
2017-12-05T00:02:54.587Z,6.70
2017-12-05T00:05:29.519Z,7.30
2017-12-05T00:08:03.399Z,5.93
2017-12-05T00:10:37.621Z,6.15
2017-12-05T00:13:11.630Z,6.28
2017-12-05T00:15:46.268Z,5.82
2017-12-05T00:18:20.139Z,5.90
2017-12-05T00:21:00.836Z,5.93
2017-12-05T00:23:34.604Z,5.55
2017-12-05T00:26:09.376Z,5.80
2017-12-05T00:28:43.288Z,6.30
2017-12-05T00:31:18.227Z,7.72
2017-12-05T00:33:52.459Z,6.37
2017-12-05T00:36:26.341Z,6.07
2017-12-05T00:39:14.964Z,6.15
2017-12-05T00:41:49.172Z,6.30
2017-12-05T00:44:22.985Z,6.18
2017-12-05T00:47:00.081Z,5.97
2017-12-05T00:49:33.878Z,6.20
2017-12-05T00:52:11.698Z,6.03
2017-12-05T00:54:46.323Z,6.80
2017-12-05T00:57:20.346Z,7.18
2017-12-05T00:59:54.105Z,6.80
2017-12-05T01:02:27.924Z,5.80
2017-12-05T01:05:01.996Z,6.50
2017-12-05T01:07:36.136Z,6.22
2017-12-05T01:10:10.266Z,6.40
2017-12-05T01:12:44.796Z,5.75
2017-12-05T01:15:18.560Z,5.82
2017-12-05T01:17:52.384Z,5.55
2017-12-05T01:20:27.209Z,6.47
2017-12-05T01:23:02.967Z,5.65
2017-12-05T01:25:40.169Z,5.78
2017-12-05T01:28:13.949Z,5.75
2017-12-05T01:30:48.612Z,5.65
2017-12-05T01:33:22.457Z,5.72
2017-12-05T01:35:56.511Z,5.90
2017-12-05T01:38:30.344Z,6.55
2017-12-05T01:41:04.347Z,5.35
2017-12-05T01:43:38.164Z,5.47
2017-12-05T01:46:12.159Z,5.25
2017-12-05T01:48:46.480Z,5.97
2017-12-05T01:51:22.088Z,5.60
2017-12-05T01:53:56.616Z,6.20
2017-12-05T01:56:33.218Z,5.20
2017-12-05T01:59:07.108Z,4.87
2017-12-05T02:01:41.636Z,5.37
2017-12-05T02:04:15.674Z,4.97
2017-12-05T02:06:50.510Z,5.60
2017-12-05T02:09:25.069Z,4.87
2017-12-05T02:11:59.003Z,5.20
2017-12-05T02:14:32.815Z,5.05
2017-12-05T02:17:19.129Z,5.40
2017-12-05T02:19:52.870Z,5.47
2017-12-05T02:22:27.655Z,5.45
2017-12-05T02:25:01.472Z,5.00
2017-12-05T02:27:35.583Z,5.45
2017-12-05T02:30:10.233Z,4.78
2017-12-05T02:32:46.035Z,5.28
2017-12-05T02:35:20.532Z,6.03
2017-12-05T02:37:54.495Z,5.62
2017-12-05T02:40:42.104Z,5.25
2017-12-05T02:43:16.289Z,4.82
2017-12-05T02:45:50.078Z,5.70
2017-12-05T02:48:25.446Z,5.85
2017-12-05T02:51:01.187Z,6.57
2017-12-05T02:53:34.991Z,6.47
2017-12-05T02:56:09.692Z,5.55
2017-12-05T02:58:43.586Z,5.75
2017-12-05T03:01:18.119Z,6.15
2017-12-05T03:03:52.795Z,6.80
2017-12-05T03:06:26.629Z,6.40
2017-12-05T03:09:00.798Z,6.50
2017-12-05T03:11:35.395Z,6.28
2017-12-05T03:14:09.254Z,5.80
2017-12-05T03:16:44.853Z,6.32
2017-12-05T03:19:18.696Z,6.50
2017-12-05T03:21:54.261Z,5.87
2017-12-05T03:24:28.261Z,5.80
2017-12-05T03:27:03.319Z,6.05
2017-12-05T03:29:37.476Z,6.57
2017-12-05T03:32:11.244Z,6.47
2017-12-05T03:34:45.263Z,5.85
2017-12-05T03:37:19.176Z,6.70
2017-12-05T03:39:53.780Z,6.28
2017-12-05T03:42:28.619Z,5.60
2017-12-05T03:45:02.457Z,5.80
2017-12-05T03:47:36.407Z,5.40
2017-12-05T03:50:10.168Z,5.05
2017-12-05T03:52:51.818Z,5.75
2017-12-05T03:55:25.635Z,5.12
2017-12-05T03:58:03.762Z,5.37
2017-12-05T04:00:37.581Z,6.00
2017-12-05T04:03:24.224Z,6.10
2017-12-05T04:05:58.136Z,6.47
2017-12-05T04:08:34.121Z,6.37
2017-12-05T04:11:08.161Z,6.55
2017-12-05T04:13:42.355Z,7.50
2017-12-05T04:16:16.271Z,7.35
2017-12-05T04:18:54.091Z,9.57
2017-12-05T04:21:27.841Z,7.18
2017-12-05T04:24:05.722Z,7.60
2017-12-05T04:26:39.581Z,9.43
2017-12-05T04:29:23.425Z,7.10
2017-12-05T04:31:57.237Z,7.10
2017-12-05T04:34:39.955Z,8.05
2017-12-05T04:37:13.646Z,8.10
2017-12-05T04:42:50.713Z,6.90
2017-12-05T04:45:25.074Z,8.50
2017-12-05T04:48:06.591Z,7.50
2017-12-05T04:50:41.150Z,7.85
2017-12-05T04:53:15.632Z,7.80
2017-12-05T04:55:49.780Z,8.60
2017-12-05T04:58:35.501Z,6.35
2017-12-05T05:01:09.367Z,8.15
2017-12-05T05:03:57.012Z,8.15
2017-12-05T05:06:31.621Z,8.75
2017-12-05T05:09:07.648Z,7.80
2017-12-05T05:11:41.421Z,8.05
2017-12-05T05:14:16.701Z,8.43
2017-12-05T05:16:50.573Z,7.93
2017-12-05T05:19:25.116Z,8.68
2017-12-05T05:22:05.429Z,8.48
2017-12-05T05:24:39.897Z,10.10
2017-12-05T05:27:14.666Z,8.27
2017-12-05T05:29:56.919Z,10.15
2017-12-05T05:32:30.822Z,9.85
2017-12-05T05:35:05.848Z,9.20
2017-12-05T05:37:42.104Z,7.75
2017-12-05T05:40:19.718Z,8.98
2017-12-05T05:42:54.370Z,9.25
2017-12-05T05:45:28.348Z,7.97
2017-12-05T05:48:09.815Z,9.10
2017-12-05T05:50:43.516Z,8.20
2017-12-05T05:53:24.281Z,9.07
2017-12-05T05:55:58.084Z,8.20
2017-12-05T05:58:44.594Z,8.60
2017-12-05T06:01:20.358Z,8.27
2017-12-05T06:04:00.319Z,8.80
2017-12-05T06:06:34.335Z,9.55
2017-12-05T06:09:18.076Z,9.30
2017-12-05T06:11:51.854Z,8.80
2017-12-05T06:14:39.648Z,9.48
2017-12-05T06:17:18.207Z,8.75
2017-12-05T06:19:52.164Z,8.60
2017-12-05T06:22:32.832Z,9.25
2017-12-05T06:25:06.887Z,9.40
2017-12-05T06:27:40.756Z,9.23
2017-12-05T06:30:14.680Z,10.35
2017-12-05T06:32:54.654Z,9.35
2017-12-05T06:35:34.916Z,9.88
2017-12-05T06:38:10.040Z,9.73
2017-12-05T06:40:43.986Z,8.63
2017-12-05T06:43:31.214Z,9.57
2017-12-05T06:46:09.653Z,8.63
2017-12-05T06:51:45.314Z,8.45
2017-12-05T06:54:19.868Z,8.70
2017-12-05T06:56:55.749Z,8.65
2017-12-05T06:59:31.617Z,10.75
2017-12-05T07:02:13.881Z,9.48
2017-12-05T07:04:48.999Z,9.70
2017-12-05T07:07:26.723Z,9.45
2017-12-05T07:10:02.264Z,11.00
2017-12-05T07:12:40.473Z,9.55
2017-12-05T07:15:16.431Z,9.77
2017-12-05T07:17:52.085Z,9.70
2017-12-05T07:20:26.994Z,10.73
2017-12-05T07:23:07.829Z,9.98
2017-12-05T07:25:41.511Z,9.82
2017-12-05T07:28:17.440Z,11.57
2017-12-05T07:30:53.428Z,10.75
2017-12-05T07:33:28.332Z,12.13
2017-12-05T07:36:08.048Z,9.48
2017-12-05T07:38:43.999Z,9.90
2017-12-05T07:41:24.405Z,9.50
2017-12-05T07:47:00.192Z,10.60
2017-12-05T07:49:34.362Z,9.95
2017-12-05T07:52:08.347Z,10.57
2017-12-05T07:54:42.210Z,10.85
2017-12-05T07:57:17.160Z,11.23
2017-12-05T07:59:50.937Z,9.82
2017-12-05T08:02:24.793Z,10.93
2017-12-05T08:05:00.412Z,11.07
2017-12-05T08:07:35.006Z,11.57
2017-12-05T08:10:08.976Z,10.82
2017-12-05T08:12:43.020Z,10.60
2017-12-05T08:15:17.865Z,12.05
2017-12-05T08:17:51.853Z,10.57
2017-12-05T08:20:26.692Z,12.75
2017-12-05T08:23:01.396Z,11.88
2017-12-05T08:25:40.248Z,11.40
2017-12-05T08:28:15.188Z,12.48
2017-12-05T08:30:49.301Z,10.60
2017-12-05T08:33:24.008Z,11.68
2017-12-05T08:35:57.863Z,10.18
2017-12-05T08:38:38.968Z,11.27
2017-12-05T08:41:13.490Z,11.10
2017-12-05T08:43:47.504Z,11.45
2017-12-05T08:46:21.377Z,12.43
2017-12-05T08:49:00.923Z,11.55
2017-12-05T08:51:39.766Z,13.32
2017-12-05T08:54:38.617Z,10.93
2017-12-05T08:57:19.556Z,10.90
2017-12-05T09:00:07.906Z,11.65
2017-12-05T09:02:45.689Z,12.52
2017-12-05T09:05:28.035Z,12.98
2017-12-05T09:08:22.128Z,11.63
2017-12-05T09:11:18.107Z,12.63
2017-12-05T09:13:55.772Z,12.32
2017-12-05T09:16:32.785Z,11.80
2017-12-05T09:19:06.784Z,13.02
2017-12-05T09:21:42.599Z,12.18
2017-12-05T09:24:38.857Z,11.70
2017-12-05T09:30:22.611Z,11.32
2017-12-05T09:33:28.552Z,11.60
2017-12-05T09:36:12.961Z,9.88
2017-12-05T09:38:47.059Z,9.85
2017-12-05T09:41:46.466Z,10.05
2017-12-05T09:44:43.645Z,8.82
2017-12-05T09:47:39.542Z,10.45
2017-12-05T09:50:25.764Z,7.47
2017-12-05T09:56:23.738Z,9.30
2017-12-05T10:02:07.104Z,7.28
2017-12-05T10:04:51.526Z,8.43
2017-12-05T10:07:32.568Z,9.40
2017-12-05T10:10:15.554Z,8.93
2017-12-05T10:12:53.435Z,7.30
2017-12-05T10:18:23.195Z,7.05
2017-12-05T10:20:57.851Z,7.07
2017-12-05T10:23:32.617Z,7.95
2017-12-05T10:26:07.934Z,6.53
2017-12-05T10:28:56.196Z,8.02
2017-12-05T10:31:30.002Z,7.12
2017-12-05T10:34:04.046Z,7.78
2017-12-05T10:36:38.711Z,8.05
2017-12-05T10:39:14.588Z,7.30
2017-12-05T10:41:50.968Z,7.50
2017-12-05T10:44:25.659Z,8.57
2017-12-05T10:46:59.712Z,9.05
2017-12-05T10:49:34.391Z,7.20
2017-12-05T10:52:08.240Z,7.10
2017-12-05T10:54:42.491Z,7.70
2017-12-05T10:57:16.408Z,7.30
2017-12-05T10:59:50.970Z,8.80
2017-12-05T11:02:25.730Z,7.18
2017-12-05T11:04:59.583Z,6.72
2017-12-05T11:07:37.783Z,6.70
2017-12-05T11:10:11.626Z,7.07
2017-12-05T11:12:45.516Z,6.85
2017-12-05T11:15:22.103Z,7.37
2017-12-05T11:17:56.055Z,5.80
2017-12-05T11:20:32.047Z,6.00
2017-12-05T11:23:08.479Z,6.28
2017-12-05T11:25:46.576Z,6.90
2017-12-05T11:28:22.630Z,6.55
2017-12-05T11:30:57.466Z,7.68
2017-12-05T11:33:32.894Z,7.53
2017-12-05T11:36:06.787Z,7.05
2017-12-05T11:38:44.662Z,7.18
2017-12-05T11:41:19.486Z,8.73
2017-12-05T11:43:54.424Z,7.37
2017-12-05T11:46:29.520Z,8.30
2017-12-05T11:49:17.781Z,7.90
2017-12-05T11:51:51.714Z,8.18
2017-12-05T11:54:29.158Z,6.30
2017-12-05T11:57:16.068Z,7.30
2017-12-05T11:59:49.900Z,8.52
2017-12-05T12:02:35.464Z,8.23
2017-12-05T12:05:11.624Z,7.35
2017-12-05T12:07:45.510Z,7.07
2017-12-05T12:10:21.235Z,6.93
2017-12-05T12:13:19.575Z,8.15
2017-12-05T12:18:44.116Z,9.48
2017-12-05T12:21:21.004Z,7.57
2017-12-05T12:24:24.792Z,7.37
2017-12-05T12:27:01.205Z,7.35
2017-12-05T12:29:35.177Z,8.73
2017-12-05T12:32:08.980Z,8.15
2017-12-05T12:38:00.544Z,7.82
2017-12-05T12:40:35.655Z,7.72
2017-12-05T12:43:10.492Z,8.38
2017-12-05T12:45:44.536Z,8.98
2017-12-05T12:48:20.087Z,7.97
2017-12-05T12:51:05.801Z,7.82
2017-12-05T12:53:40.504Z,9.75
2017-12-05T12:56:15.158Z,8.63
2017-12-05T12:58:54.804Z,9.63
2017-12-05T13:01:28.622Z,8.63
2017-12-05T13:04:05.772Z,7.72
2017-12-05T13:06:44.234Z,8.10
2017-12-05T13:09:18.380Z,7.80
2017-12-05T13:11:52.492Z,8.32
2017-12-05T13:14:26.922Z,7.50
2017-12-05T13:17:01.774Z,8.40
2017-12-05T13:19:35.730Z,7.30
2017-12-05T13:22:09.909Z,8.98
2017-12-05T13:24:43.728Z,7.65
2017-12-05T13:27:18.748Z,8.43
2017-12-05T13:29:52.684Z,9.43
2017-12-05T13:32:26.765Z,7.05
2017-12-05T13:35:01.628Z,7.40
2017-12-05T13:37:36.612Z,7.78
2017-12-05T13:40:11.654Z,7.90
2017-12-05T13:42:46.381Z,8.38
2017-12-05T13:45:20.367Z,10.00
2017-12-05T13:47:55.085Z,9.63
2017-12-05T13:50:30.185Z,8.82
2017-12-05T13:53:04.152Z,8.30
2017-12-05T13:55:38.497Z,8.85
2017-12-05T13:58:13.064Z,9.00
2017-12-05T14:00:47.003Z,7.95
2017-12-05T14:03:20.948Z,7.97
2017-12-05T14:05:56.569Z,9.02
2017-12-05T14:08:30.365Z,9.23
2017-12-05T14:11:04.401Z,8.93
2017-12-05T14:13:38.446Z,9.75
2017-12-05T14:16:12.519Z,8.57
2017-12-05T14:18:47.176Z,9.15
2017-12-05T14:21:22.830Z,9.00
2017-12-05T14:23:57.088Z,9.48
2017-12-05T14:26:31.144Z,8.93
2017-12-05T14:29:06.124Z,8.57
2017-12-05T14:31:40.014Z,9.85
2017-12-05T14:34:14.781Z,8.80
2017-12-05T14:36:48.859Z,9.45
2017-12-05T14:39:23.456Z,9.30
2017-12-05T14:41:58.146Z,8.80
2017-12-05T14:44:32.790Z,11.30
2017-12-05T14:47:06.698Z,10.77
2017-12-05T14:49:45.902Z,9.02
2017-12-05T14:52:19.911Z,9.55
2017-12-05T14:54:55.496Z,10.43
2017-12-05T14:57:29.283Z,8.55
2017-12-05T15:00:03.099Z,10.10
2017-12-05T15:02:43.820Z,9.15
2017-12-05T15:11:34.182Z,9.13
2017-12-05T15:14:08.092Z,8.73
2017-12-05T15:16:45.623Z,8.25
2017-12-05T15:19:19.438Z,10.90
2017-12-05T15:21:56.183Z,9.30
2017-12-05T15:24:30.490Z,8.68
2017-12-05T15:27:05.216Z,7.78
2017-12-05T15:29:39.401Z,8.98
2017-12-05T15:32:13.238Z,8.90
2017-12-05T15:34:47.201Z,9.90
2017-12-05T15:37:21.213Z,12.45
2017-12-05T15:39:55.020Z,8.82
2017-12-05T15:42:29.892Z,10.02
2017-12-05T15:45:03.986Z,21.67
2017-12-05T15:47:38.713Z,10.27
2017-12-05T15:50:12.492Z,9.82
2017-12-05T15:52:47.162Z,8.00
2017-12-05T15:55:22.040Z,10.88
2017-12-05T15:57:55.812Z,10.57
2017-12-05T16:00:39.366Z,10.35
2017-12-05T16:03:13.195Z,10.23
2017-12-05T16:05:47.044Z,11.27
2017-12-05T16:08:45.837Z,10.23
2017-12-05T16:11:20.566Z,9.02
2017-12-05T16:13:54.380Z,8.57
2017-12-05T16:16:32.265Z,9.85
2017-12-05T16:19:06.187Z,10.30
2017-12-05T16:21:40.870Z,10.25
2017-12-05T16:24:14.685Z,9.43
2017-12-05T16:26:48.680Z,9.55
2017-12-05T16:29:23.917Z,10.50
2017-12-05T16:31:57.634Z,8.93
2017-12-05T16:34:32.423Z,9.60
2017-12-05T16:37:06.356Z,10.38
2017-12-05T16:39:40.464Z,8.90
2017-12-05T16:42:14.224Z,11.70
2017-12-05T16:44:50.910Z,10.65
2017-12-05T16:47:24.856Z,10.60
2017-12-05T16:50:10.540Z,12.77
2017-12-05T16:52:44.394Z,9.65
2017-12-05T16:55:38.041Z,10.30
2017-12-05T16:58:15.057Z,10.20
2017-12-05T17:00:52.041Z,8.10
2017-12-05T17:03:25.940Z,10.68
2017-12-05T17:05:59.962Z,8.93
2017-12-05T17:08:40.664Z,9.98
2017-12-05T17:11:14.544Z,10.07
2017-12-05T17:13:50.544Z,9.32
2017-12-05T17:16:24.423Z,10.45
2017-12-05T17:18:58.438Z,10.02
2017-12-05T17:21:32.442Z,9.18
2017-12-05T17:24:06.278Z,9.88
2017-12-05T17:26:41.205Z,10.30
2017-12-05T17:29:15.042Z,8.52
2017-12-05T17:31:52.082Z,8.50
2017-12-05T17:34:25.946Z,8.50
2017-12-05T17:36:59.916Z,7.45
2017-12-05T17:39:34.380Z,8.57
2017-12-05T17:42:08.220Z,8.65
2017-12-05T17:44:42.744Z,8.10
2017-12-05T17:47:16.852Z,9.10
2017-12-05T17:49:50.584Z,11.12
2017-12-05T17:52:25.379Z,9.20
2017-12-05T17:54:59.876Z,7.37
2017-12-05T17:57:33.842Z,9.88
2017-12-05T18:00:12.239Z,9.35
2017-12-05T18:02:46.689Z,8.55
2017-12-05T18:05:33.175Z,9.65
2017-12-05T18:08:07.143Z,8.68
2017-12-05T18:10:46.249Z,10.65
2017-12-05T18:13:41.205Z,8.65
2017-12-05T18:16:15.150Z,9.65
2017-12-05T18:18:56.641Z,18.58
2017-12-05T18:21:30.377Z,9.15
2017-12-05T18:24:07.167Z,9.30
2017-12-05T18:26:40.951Z,9.73
2017-12-05T18:29:20.070Z,9.90
2017-12-05T18:31:53.849Z,9.93
2017-12-05T18:34:43.275Z,10.55
2017-12-05T18:37:17.099Z,10.98
2017-12-05T18:39:50.896Z,10.50
2017-12-05T18:42:25.130Z,10.20
2017-12-05T18:44:58.997Z,9.70
2017-12-05T18:47:35.014Z,10.88
2017-12-05T18:50:14.848Z,11.02
2017-12-05T18:52:48.761Z,10.35
2017-12-05T18:55:22.750Z,11.10
2017-12-05T18:57:57.454Z,11.20
2017-12-05T19:00:31.290Z,11.15
2017-12-05T19:03:10.149Z,10.98
2017-12-05T19:05:48.161Z,11.35
2017-12-05T19:08:22.806Z,13.18
2017-12-05T19:11:08.224Z,11.55
2017-12-05T19:13:56.238Z,12.15
2017-12-05T19:16:30.216Z,12.52
2017-12-05T19:19:05.848Z,10.98
2017-12-05T19:21:41.876Z,15.15
2017-12-05T19:24:16.394Z,11.55
2017-12-05T19:27:09.000Z,10.60
2017-12-05T19:29:45.687Z,13.02
2017-12-05T19:32:27.260Z,10.38
2017-12-05T19:35:01.651Z,10.10
2017-12-05T19:37:35.306Z,10.55
2017-12-05T19:40:10.176Z,10.88
2017-12-05T19:42:46.052Z,9.80
2017-12-05T19:45:26.185Z,9.18
2017-12-05T19:48:00.820Z,12.60
2017-12-05T19:50:35.496Z,10.57
2017-12-05T19:53:09.387Z,12.27
2017-12-05T19:55:45.213Z,10.27
2017-12-05T19:58:19.067Z,12.15
2017-12-05T20:00:52.971Z,11.93
2017-12-05T20:03:27.036Z,13.05
2017-12-05T20:06:01.269Z,12.35
2017-12-05T20:08:36.010Z,13.77
2017-12-05T20:11:10.092Z,11.95
2017-12-05T20:13:44.688Z,12.50
2017-12-05T20:16:18.520Z,11.12
2017-12-05T20:18:52.406Z,12.48
2017-12-05T20:21:27.064Z,11.77
2017-12-05T20:24:05.926Z,10.27
2017-12-05T20:26:40.483Z,9.70
2017-12-05T20:29:14.340Z,10.57
2017-12-05T20:31:49.001Z,10.25
2017-12-05T20:34:22.818Z,10.85
2017-12-05T20:36:56.774Z,11.05
2017-12-05T20:39:31.854Z,10.88
2017-12-05T20:42:06.390Z,11.82
2017-12-05T20:44:40.245Z,11.10
2017-12-05T20:47:15.134Z,11.40
2017-12-05T20:49:49.705Z,12.27
2017-12-05T20:52:23.706Z,11.30
2017-12-05T20:54:58.191Z,13.70
2017-12-05T20:57:32.989Z,12.30
2017-12-05T21:00:07.577Z,11.65
2017-12-05T21:02:42.139Z,12.45
2017-12-05T21:05:16.100Z,11.70
2017-12-05T21:07:50.141Z,12.40
2017-12-05T21:10:24.744Z,11.27
2017-12-05T21:12:59.328Z,11.30
2017-12-05T21:15:33.186Z,11.60
2017-12-05T21:18:07.123Z,11.18
2017-12-05T21:20:41.091Z,12.65
2017-12-05T21:23:15.740Z,13.02
2017-12-05T21:25:49.567Z,12.45
2017-12-05T21:28:23.462Z,12.57
2017-12-05T21:30:57.209Z,12.13
2017-12-05T21:33:31.085Z,11.80
2017-12-05T21:36:05.060Z,11.25
2017-12-05T21:38:40.564Z,10.82
2017-12-05T21:41:14.350Z,10.90
2017-12-05T21:43:49.250Z,11.93
2017-12-05T21:46:23.123Z,11.68
2017-12-05T21:48:58.115Z,11.90
2017-12-05T21:51:31.945Z,11.63
2017-12-05T21:54:07.850Z,11.35
2017-12-05T21:56:41.682Z,11.65
2017-12-05T21:59:16.621Z,12.77
2017-12-05T22:01:50.366Z,16.65
2017-12-05T22:04:25.324Z,11.80
2017-12-05T22:06:59.088Z,11.85
2017-12-05T22:09:32.884Z,11.02
2017-12-05T22:12:07.845Z,11.93
2017-12-05T22:14:42.352Z,10.68
2017-12-05T22:17:19.046Z,10.38
2017-12-05T22:19:53.650Z,11.43
2017-12-05T22:22:28.642Z,11.02
2017-12-05T22:25:02.412Z,10.95
2017-12-05T22:27:37.014Z,12.27
2017-12-05T22:30:10.898Z,10.20
2017-12-05T22:32:46.143Z,11.82
2017-12-05T22:35:21.037Z,10.68
2017-12-05T22:37:54.934Z,10.90
2017-12-05T22:40:29.390Z,11.43
2017-12-05T22:43:03.623Z,10.70
2017-12-05T22:45:37.373Z,12.50
2017-12-05T22:48:11.197Z,10.80
2017-12-05T22:50:47.951Z,10.73
2017-12-05T22:53:22.344Z,11.23
2017-12-05T22:56:00.164Z,10.40
2017-12-05T22:58:35.259Z,9.90
2017-12-05T23:01:09.462Z,10.10
2017-12-05T23:03:44.328Z,10.35
2017-12-05T23:06:18.209Z,10.05
2017-12-05T23:08:52.934Z,9.05
2017-12-05T23:11:26.805Z,9.90
2017-12-05T23:14:01.061Z,10.38
2017-12-05T23:16:35.956Z,10.05
2017-12-05T23:19:09.926Z,9.68
2017-12-05T23:21:46.547Z,10.05
2017-12-05T23:24:20.428Z,10.15
2017-12-05T23:26:54.291Z,9.73
2017-12-05T23:29:28.404Z,10.30
2017-12-05T23:32:02.269Z,9.20
2017-12-05T23:34:36.904Z,9.10
2017-12-05T23:37:11.711Z,10.20
2017-12-05T23:39:45.605Z,9.38
2017-12-05T23:42:19.428Z,9.35
2017-12-05T23:44:53.345Z,9.60
2017-12-05T23:47:27.440Z,8.38
2017-12-05T23:50:02.496Z,7.57
2017-12-05T23:52:37.024Z,9.27
2017-12-05T23:55:10.999Z,9.70
2017-12-05T23:57:45.647Z,8.65
